Time;durP1;ratioP1;P1;durP2;ratioP2;P2;SDS_P1;SDS_P2;PMS_P1;PMS_P2;Temp;Humidity;BMP_temperature;BMP_pressure;BME280_temperature;BME280_humidity;BME280_pressure;Samples;Min_cycle;Max_cycle;Signal;HPM_P1;HPM_P2
2022/08/20 00:01:45;;;;;;;10.38;6.90;;;19.70;99.90;;;;;;4964646;28;20043;-45
2022/08/20 00:04:11;;;;;;;9.43;6.70;;;19.60;99.90;;;;;;4963513;28;20053;-50
2022/08/20 00:06:39;;;;;;;10.45;6.90;;;19.60;99.90;;;;;;4963397;28;20043;-49
2022/08/20 00:09:04;;;;;;;9.88;6.75;;;19.60;99.90;;;;;;4964561;28;20117;-46
2022/08/20 00:11:32;;;;;;;11.52;6.75;;;19.50;99.90;;;;;;4963287;28;20182;-49
2022/08/20 00:14:01;;;;;;;8.35;5.70;;;19.60;99.90;;;;;;4963506;28;20047;-50
2022/08/20 00:16:31;;;;;;;9.45;6.10;;;19.50;99.90;;;;;;4962549;28;20370;-50
2022/08/20 00:19:01;;;;;;;9.68;6.03;;;19.60;99.90;;;;;;4963920;28;20479;-48
2022/08/20 00:21:27;;;;;;;11.73;6.03;;;19.50;99.90;;;;;;4963962;28;20122;-49
2022/08/20 00:23:54;;;;;;;9.82;6.63;;;19.50;99.90;;;;;;4961172;28;20178;-47
2022/08/20 00:26:21;;;;;;;12.23;6.65;;;19.50;99.90;;;;;;4961830;28;20133;-47
2022/08/20 00:28:47;;;;;;;9.85;5.70;;;19.50;99.90;;;;;;4963813;28;20062;-49
2022/08/20 00:31:17;;;;;;;11.13;6.43;;;19.40;99.90;;;;;;4959008;28;20035;-49
2022/08/20 00:33:43;;;;;;;10.40;6.32;;;19.50;99.90;;;;;;4962201;28;20031;-49
2022/08/20 00:36:11;;;;;;;10.25;5.70;;;19.50;99.90;;;;;;4963141;28;20109;-46
2022/08/20 00:38:41;;;;;;;10.48;6.40;;;19.50;99.90;;;;;;4962411;28;20519;-46
2022/08/20 00:41:11;;;;;;;10.82;5.65;;;19.60;99.90;;;;;;4962803;28;20514;-47
2022/08/20 00:43:47;;;;;;;9.75;6.28;;;19.50;99.90;;;;;;4963031;28;20026;-46
2022/08/20 00:46:23;;;;;;;9.50;6.15;;;19.50;99.90;;;;;;4962280;28;20114;-48
2022/08/20 00:48:53;;;;;;;9.43;6.40;;;19.50;99.90;;;;;;4962835;28;20085;-48
2022/08/20 00:51:42;;;;;;;10.98;6.70;;;19.50;99.90;;;;;;4963300;28;20478;-46
2022/08/20 00:54:16;;;;;;;10.52;6.40;;;19.40;99.90;;;;;;4963278;28;20074;-50
2022/08/20 00:56:45;;;;;;;11.52;7.20;;;19.40;99.90;;;;;;4962344;28;20070;-48
2022/08/20 00:59:16;;;;;;;13.02;7.72;;;19.30;99.90;;;;;;4963375;28;20042;-48
2022/08/20 01:01:43;;;;;;;11.35;7.15;;;19.40;99.90;;;;;;4962733;28;20035;-48
2022/08/20 01:04:09;;;;;;;12.10;7.07;;;19.30;99.90;;;;;;4962052;28;20406;-47
2022/08/20 01:06:37;;;;;;;9.38;6.40;;;19.40;99.90;;;;;;4961543;28;20047;-48
2022/08/20 01:09:04;;;;;;;12.38;6.65;;;19.30;99.90;;;;;;4960565;28;20039;-48
2022/08/20 01:11:34;;;;;;;11.13;7.75;;;19.30;99.90;;;;;;4962598;28;20039;-47
2022/08/20 01:14:49;;;;;;;11.43;6.35;;;19.20;99.90;;;;;;4961773;28;20042;-46
2022/08/20 01:16:54;;;;;;;13.75;6.72;;;19.30;99.90;;;;;;4955532;28;20050;-47
2022/08/20 01:19:26;;;;;;;12.30;7.32;;;19.20;99.90;;;;;;4961685;28;20053;-46
2022/08/20 01:21:52;;;;;;;12.23;7.35;;;19.20;99.90;;;;;;4963182;28;20042;-46
2022/08/20 01:24:31;;;;;;;10.63;6.55;;;19.10;99.90;;;;;;4960949;28;20393;-46
2022/08/20 01:27:00;;;;;;;12.80;6.90;;;19.20;99.90;;;;;;4944923;28;20062;-45
2022/08/20 01:29:33;;;;;;;9.93;6.60;;;19.10;99.90;;;;;;4959448;28;20615;-46
2022/08/20 01:32:00;;;;;;;13.43;6.73;;;19.10;99.90;;;;;;4961880;28;20130;-45
2022/08/20 01:34:26;;;;;;;10.85;7.07;;;19.00;99.90;;;;;;4962255;28;20462;-46
2022/08/20 01:36:56;;;;;;;11.40;7.00;;;19.00;99.90;;;;;;4962378;28;20515;-45
2022/08/20 01:39:28;;;;;;;9.63;6.15;;;18.90;99.90;;;;;;4961455;28;20035;-46
2022/08/20 01:42:13;;;;;;;11.98;6.85;;;18.90;99.90;;;;;;4959897;28;20038;-45
2022/08/20 01:44:42;;;;;;;9.75;6.03;;;18.80;99.90;;;;;;4960369;28;20026;-45
2022/08/20 01:47:18;;;;;;;9.50;6.05;;;18.90;99.90;;;;;;4960452;28;20062;-46
2022/08/20 01:49:48;;;;;;;10.38;5.65;;;18.90;99.90;;;;;;4960367;28;20137;-44
2022/08/20 01:52:25;;;;;;;10.77;6.18;;;18.80;99.90;;;;;;4960337;28;20050;-45
2022/08/20 01:54:52;;;;;;;11.82;6.43;;;18.80;99.90;;;;;;4961369;28;20486;-47
2022/08/20 01:57:19;;;;;;;13.10;6.35;;;18.90;99.90;;;;;;4944982;28;20093;-45
2022/08/20 01:59:48;;;;;;;10.80;5.97;;;18.80;99.90;;;;;;4961012;28;20607;-45
2022/08/20 02:02:14;;;;;;;12.43;6.25;;;18.80;99.90;;;;;;4960689;28;20130;-46
2022/08/20 02:04:40;;;;;;;10.27;6.30;;;18.80;99.90;;;;;;4960172;28;20071;-45
2022/08/20 02:07:11;;;;;;;13.15;6.10;;;18.80;99.90;;;;;;4959799;28;20031;-45
2022/08/20 02:09:38;;;;;;;11.93;6.45;;;18.80;99.90;;;;;;4957887;28;20187;-46
2022/08/20 02:12:06;;;;;;;12.30;6.20;;;19.00;99.90;;;;;;4960726;28;20414;-45
2022/08/20 02:14:32;;;;;;;12.13;6.10;;;18.90;99.90;;;;;;4960503;28;20406;-45
2022/08/20 02:16:58;;;;;;;11.88;6.05;;;19.00;99.90;;;;;;4960988;28;20042;-46
2022/08/20 02:19:56;;;;;;;12.85;6.35;;;18.90;99.90;;;;;;4961739;28;20133;-48
2022/08/20 02:22:54;;;;;;;13.65;6.25;;;19.00;99.90;;;;;;4943132;28;20046;-47
2022/08/20 02:25:22;;;;;;;10.30;6.10;;;18.80;99.90;;;;;;4960622;28;20062;-48
2022/08/20 02:27:50;;;;;;;14.25;6.35;;;18.80;99.90;;;;;;4961387;28;20039;-45
2022/08/20 02:30:24;;;;;;;11.65;5.80;;;18.70;99.90;;;;;;4962509;28;20043;-45
2022/08/20 02:32:50;;;;;;;12.70;6.03;;;18.80;99.90;;;;;;4961740;28;20062;-46
2022/08/20 02:35:17;;;;;;;11.70;6.03;;;18.60;99.90;;;;;;4962928;28;20074;-46
2022/08/20 02:37:44;;;;;;;11.15;5.88;;;18.60;99.90;;;;;;4962855;28;20051;-45
2022/08/20 02:40:14;;;;;;;12.02;6.05;;;18.50;99.90;;;;;;4965312;28;20139;-48
2022/08/20 02:42:41;;;;;;;14.52;6.60;;;18.60;99.90;;;;;;4964546;28;20458;-46
2022/08/20 02:45:11;;;;;;;10.38;5.90;;;18.50;99.90;;;;;;4965451;28;20426;-46
2022/08/20 02:47:38;;;;;;;14.18;6.15;;;18.50;99.90;;;;;;4964364;28;20046;-45
2022/08/20 02:50:06;;;;;;;11.52;5.93;;;18.50;99.90;;;;;;4965995;28;20038;-45
2022/08/20 02:52:32;;;;;;;8.48;5.63;;;18.50;99.90;;;;;;4965499;28;20127;-49
2022/08/20 02:54:58;;;;;;;14.45;6.30;;;18.60;99.90;;;;;;4964912;28;20126;-48
2022/08/20 02:57:23;;;;;;;12.00;5.97;;;18.60;99.90;;;;;;4965227;28;20074;-50
2022/08/20 02:59:51;;;;;;;16.55;6.53;;;18.60;99.90;;;;;;4965622;28;20163;-48
2022/08/20 03:02:17;;;;;;;13.07;6.60;;;18.60;99.90;;;;;;4964897;28;20494;-48
2022/08/20 03:04:43;;;;;;;10.18;6.03;;;18.70;99.90;;;;;;4949357;28;20034;-47
2022/08/20 03:07:09;;;;;;;10.73;6.20;;;18.60;99.90;;;;;;4965046;28;20081;-46
2022/08/20 03:09:35;;;;;;;13.68;5.97;;;18.60;99.90;;;;;;4964931;28;20877;-45
2022/08/20 03:12:02;;;;;;;11.52;6.30;;;18.60;99.90;;;;;;4964228;28;20093;-45
2022/08/20 03:14:27;;;;;;;8.95;6.63;;;18.60;99.90;;;;;;4964220;28;20042;-45
2022/08/20 03:16:53;;;;;;;14.65;6.63;;;18.50;99.90;;;;;;4964888;28;20121;-45
2022/08/20 03:19:19;;;;;;;14.43;6.60;;;18.60;99.90;;;;;;4964973;28;20037;-45
2022/08/20 03:21:45;;;;;;;11.75;6.93;;;18.50;99.90;;;;;;4948392;28;20514;-45
2022/08/20 03:24:10;;;;;;;9.90;6.55;;;18.50;99.90;;;;;;4963906;28;20034;-46
2022/08/20 03:26:36;;;;;;;12.45;6.57;;;18.50;99.90;;;;;;4964374;28;20138;-48
2022/08/20 03:29:03;;;;;;;11.38;6.50;;;18.40;99.90;;;;;;4964874;28;20038;-49
2022/08/20 03:31:28;;;;;;;9.73;5.90;;;18.40;99.90;;;;;;4963804;28;20508;-46
2022/08/20 03:33:54;;;;;;;13.60;6.30;;;18.40;99.90;;;;;;4964134;28;20034;-46
2022/08/20 03:36:21;;;;;;;10.27;6.10;;;18.20;99.90;;;;;;4962664;28;20042;-46
2022/08/20 03:38:47;;;;;;;12.48;6.03;;;18.30;99.90;;;;;;4964119;28;20031;-48
2022/08/20 03:41:12;;;;;;;11.07;5.90;;;18.30;99.90;;;;;;4964213;28;20035;-45
2022/08/20 03:43:40;;;;;;;9.27;6.43;;;18.40;99.90;;;;;;4965137;28;20042;-45
2022/08/20 03:46:06;;;;;;;8.18;6.15;;;18.30;99.90;;;;;;4963575;28;20053;-46
2022/08/20 03:48:32;;;;;;;10.77;6.10;;;18.40;99.90;;;;;;4964530;28;20478;-47
2022/08/20 03:50:59;;;;;;;9.50;5.45;;;18.40;99.90;;;;;;4963580;28;20089;-47
2022/08/20 03:53:28;;;;;;;13.18;6.00;;;18.20;99.90;;;;;;4963534;28;20035;-47
2022/08/20 03:55:54;;;;;;;10.82;5.80;;;18.10;99.90;;;;;;4963135;28;20039;-45
2022/08/20 03:58:21;;;;;;;11.18;6.28;;;18.10;99.90;;;;;;4963148;28;20813;-47
2022/08/20 04:00:49;;;;;;;11.00;5.97;;;18.10;99.90;;;;;;4962892;28;20030;-45
2022/08/20 04:03:15;;;;;;;11.80;6.13;;;18.20;99.90;;;;;;4963012;28;20031;-44
2022/08/20 04:05:42;;;;;;;10.75;5.43;;;18.10;99.90;;;;;;4965031;28;20042;-45
2022/08/20 04:08:14;;;;;;;11.90;5.85;;;18.10;99.90;;;;;;4962605;28;20097;-47
2022/08/20 04:10:41;;;;;;;9.88;5.85;;;18.00;99.90;;;;;;4963901;28;20505;-46
2022/08/20 04:13:08;;;;;;;13.15;5.95;;;17.90;99.90;;;;;;4963430;28;20101;-50
2022/08/20 04:15:35;;;;;;;9.50;5.53;;;17.90;99.90;;;;;;4962356;28;20043;-45
2022/08/20 04:18:06;;;;;;;10.57;5.55;;;17.90;99.90;;;;;;4963727;28;20488;-46
2022/08/20 04:20:33;;;;;;;10.00;5.70;;;18.00;99.90;;;;;;4963099;28;20038;-50
2022/08/20 04:22:58;;;;;;;10.63;5.53;;;17.90;99.90;;;;;;4963370;28;20506;-45
2022/08/20 04:25:24;;;;;;;11.10;6.00;;;17.90;99.90;;;;;;4962243;28;20066;-47
2022/08/20 04:27:50;;;;;;;10.38;6.00;;;17.90;99.90;;;;;;4963441;28;20132;-47
2022/08/20 04:30:18;;;;;;;12.30;6.10;;;17.90;99.90;;;;;;4963183;28;20038;-50
2022/08/20 04:32:44;;;;;;;11.52;5.88;;;17.80;99.90;;;;;;4964013;28;20034;-48
2022/08/20 04:35:16;;;;;;;10.63;5.80;;;17.70;99.90;;;;;;4963261;28;20486;-46
2022/08/20 04:37:46;;;;;;;8.40;5.68;;;17.70;99.90;;;;;;4961950;28;20553;-45
2022/08/20 04:43:04;;;;;;;8.90;5.70;;;17.70;99.90;;;;;;4963120;28;20117;-44
2022/08/20 04:45:33;;;;;;;10.68;5.97;;;17.50;99.90;;;;;;4960225;28;20114;-47
2022/08/20 04:48:04;;;;;;;9.20;5.88;;;17.50;99.90;;;;;;4946299;28;20035;-47
2022/08/20 04:50:35;;;;;;;10.30;6.20;;;17.50;99.90;;;;;;4963244;28;20081;-46
2022/08/20 04:53:03;;;;;;;10.35;6.03;;;17.50;99.90;;;;;;4962113;28;20063;-45
2022/08/20 04:55:29;;;;;;;11.80;5.90;;;17.50;99.90;;;;;;4960763;28;20047;-48
2022/08/20 04:58:00;;;;;;;10.90;5.50;;;17.50;99.90;;;;;;4961954;28;20097;-46
2022/08/20 05:00:26;;;;;;;12.90;6.10;;;17.50;99.90;;;;;;4961499;28;20043;-45
2022/08/20 05:02:52;;;;;;;11.32;5.97;;;17.60;99.90;;;;;;4962000;28;20043;-47
2022/08/20 05:05:20;;;;;;;11.05;5.75;;;17.50;99.90;;;;;;4962043;28;20106;-48
2022/08/20 05:07:46;;;;;;;11.10;5.80;;;17.60;99.90;;;;;;4962189;28;20125;-45
2022/08/20 05:10:14;;;;;;;11.15;5.38;;;17.40;99.90;;;;;;4961979;28;20117;-46
2022/08/20 05:12:41;;;;;;;10.13;5.55;;;17.60;99.90;;;;;;4963308;28;20038;-44
2022/08/20 05:15:10;;;;;;;13.07;5.78;;;17.60;99.90;;;;;;4962473;28;20050;-45
2022/08/20 05:17:37;;;;;;;10.65;5.50;;;17.60;99.90;;;;;;4953451;28;20039;-46
2022/08/20 05:20:05;;;;;;;11.32;5.40;;;17.60;99.90;;;;;;4962025;28;20039;-45
2022/08/20 05:22:30;;;;;;;10.77;5.43;;;17.60;99.90;;;;;;4961347;28;20035;-46
2022/08/20 05:24:58;;;;;;;11.60;5.10;;;17.70;99.90;;;;;;4960889;28;20059;-45
2022/08/20 05:27:25;;;;;;;13.15;5.03;;;17.60;99.90;;;;;;4963344;28;20122;-47
2022/08/20 05:29:53;;;;;;;11.95;5.60;;;17.60;99.90;;;;;;4961934;28;20475;-48
2022/08/20 05:32:20;;;;;;;9.70;5.15;;;17.70;99.90;;;;;;4961905;28;20074;-51
2022/08/20 05:34:45;;;;;;;11.63;5.75;;;17.80;99.90;;;;;;4944666;28;20051;-45
2022/08/20 05:37:11;;;;;;;10.32;4.90;;;17.80;99.90;;;;;;4962397;28;20380;-50
2022/08/20 05:39:36;;;;;;;10.60;5.22;;;17.80;99.90;;;;;;4963296;28;20402;-48
2022/08/20 05:42:02;;;;;;;10.55;4.45;;;17.90;99.90;;;;;;4961615;28;20047;-49
2022/08/20 05:44:28;;;;;;;10.27;4.80;;;17.90;99.90;;;;;;4963237;28;20375;-50
2022/08/20 05:46:53;;;;;;;9.20;4.47;;;18.00;99.90;;;;;;4962718;28;20105;-47
2022/08/20 05:49:20;;;;;;;10.52;4.30;;;18.10;99.90;;;;;;4961880;28;20038;-48
2022/08/20 05:51:47;;;;;;;9.57;4.00;;;18.00;99.90;;;;;;4961461;28;20093;-45
2022/08/20 05:54:13;;;;;;;8.77;4.00;;;18.10;99.90;;;;;;4960745;28;20054;-45
2022/08/20 05:56:39;;;;;;;12.38;4.10;;;18.00;99.90;;;;;;4961279;28;20039;-47
2022/08/20 05:59:07;;;;;;;8.65;3.65;;;18.00;99.90;;;;;;4962465;28;20102;-50
2022/08/20 06:01:35;;;;;;;11.32;3.63;;;17.90;99.90;;;;;;4960530;28;20125;-49
2022/08/20 06:06:45;;;;;;;9.88;4.13;;;17.90;99.90;;;;;;4960707;28;20442;-48
2022/08/20 06:09:11;;;;;;;8.60;3.35;;;17.90;99.90;;;;;;4961835;28;20035;-47
2022/08/20 06:11:37;;;;;;;10.45;3.60;;;17.90;99.90;;;;;;4962285;28;20046;-49
2022/08/20 06:14:03;;;;;;;8.43;3.63;;;18.00;99.90;;;;;;4965377;28;20146;-46
2022/08/20 06:16:29;;;;;;;11.77;3.58;;;18.10;99.90;;;;;;4965265;28;20049;-48
2022/08/20 06:18:55;;;;;;;9.85;3.42;;;18.20;99.90;;;;;;4965168;28;20438;-47
2022/08/20 06:21:20;;;;;;;10.27;3.35;;;18.20;99.90;;;;;;4965301;28;20048;-47
2022/08/20 06:23:46;;;;;;;8.73;3.33;;;18.30;99.90;;;;;;4964671;28;20035;-50
2022/08/20 06:26:12;;;;;;;8.32;2.97;;;18.30;99.90;;;;;;4963404;28;20058;-48
2022/08/20 06:28:38;;;;;;;8.13;2.53;;;18.40;99.90;;;;;;4965141;28;20051;-47
2022/08/20 06:31:03;;;;;;;10.20;2.92;;;18.50;99.90;;;;;;4965126;28;20035;-46
2022/08/20 06:33:29;;;;;;;13.23;3.05;;;18.50;99.90;;;;;;4965421;28;20046;-48
2022/08/20 06:35:55;;;;;;;11.52;2.90;;;18.50;99.90;;;;;;4963512;28;20058;-46
2022/08/20 06:38:21;;;;;;;10.10;2.35;;;18.60;99.90;;;;;;4964086;28;20119;-47
2022/08/20 06:40:46;;;;;;;8.20;2.08;;;18.60;99.90;;;;;;4965158;28;20042;-48
2022/08/20 06:43:12;;;;;;;11.40;2.40;;;18.70;99.90;;;;;;4964886;28;20483;-45
2022/08/20 06:45:39;;;;;;;7.70;1.90;;;18.80;99.90;;;;;;4964459;28;20043;-45
2022/08/20 06:48:08;;;;;;;7.40;2.45;;;18.80;99.90;;;;;;4963901;28;20070;-46
2022/08/20 06:50:40;;;;;;;7.70;1.85;;;18.90;99.90;;;;;;4965629;28;20038;-48
2022/08/20 06:53:10;;;;;;;9.40;2.30;;;19.00;99.90;;;;;;4964647;28;20538;-45
2022/08/20 06:55:39;;;;;;;8.18;2.05;;;19.00;99.90;;;;;;4964191;28;20066;-47
2022/08/20 06:58:07;;;;;;;9.75;2.15;;;18.90;99.90;;;;;;4963815;28;20046;-46
2022/08/20 07:00:35;;;;;;;8.85;1.83;;;19.00;99.90;;;;;;4964314;28;20422;-47
2022/08/20 07:03:02;;;;;;;9.55;2.00;;;19.00;99.90;;;;;;4964469;28;20042;-46
2022/08/20 07:05:33;;;;;;;5.63;1.42;;;18.90;99.90;;;;;;4964612;28;20462;-51
2022/08/20 07:07:59;;;;;;;7.07;1.55;;;18.90;99.90;;;;;;4964032;28;22541;-47
2022/08/20 07:10:26;;;;;;;6.60;1.30;;;19.00;99.90;;;;;;4946724;28;20098;-48
2022/08/20 07:12:52;;;;;;;6.78;1.30;;;19.00;99.90;;;;;;4965405;28;20090;-49
2022/08/20 07:15:21;;;;;;;6.25;1.70;;;19.00;99.90;;;;;;4964417;28;20038;-49
2022/08/20 07:17:51;;;;;;;7.00;1.75;;;19.10;99.90;;;;;;4964183;28;20376;-46
2022/08/20 07:20:18;;;;;;;6.95;1.50;;;19.10;99.90;;;;;;4964683;28;20068;-46
2022/08/20 07:22:44;;;;;;;6.60;1.40;;;19.20;99.90;;;;;;4964501;28;20037;-48
2022/08/20 07:25:13;;;;;;;6.18;1.67;;;19.20;99.90;;;;;;4941433;28;20056;-51
2022/08/20 07:27:39;;;;;;;7.93;1.67;;;19.20;99.90;;;;;;4944932;28;20047;-47
2022/08/20 07:32:52;;;;;;;10.32;1.52;;;19.30;99.90;;;;;;4941842;28;20134;-48
2022/08/20 07:35:18;;;;;;;8.98;1.58;;;19.40;99.90;;;;;;4937520;28;20506;-46
2022/08/20 07:37:47;;;;;;;5.32;1.30;;;19.40;99.90;;;;;;4938806;28;20165;-45
2022/08/20 07:40:19;;;;;;;5.18;1.38;;;19.40;99.90;;;;;;4941355;28;20123;-48
2022/08/20 07:42:46;;;;;;;6.82;1.00;;;19.50;99.90;;;;;;4941375;28;20039;-49
2022/08/20 07:45:14;;;;;;;7.32;1.30;;;19.60;99.90;;;;;;4941876;28;20122;-49
2022/08/20 07:47:41;;;;;;;4.97;1.10;;;19.60;99.90;;;;;;4941796;28;20033;-49
2022/08/20 07:50:10;;;;;;;5.72;1.27;;;19.70;99.90;;;;;;4943099;28;20036;-47
2022/08/20 07:52:35;;;;;;;8.10;1.23;;;19.70;99.90;;;;;;4956601;28;20102;-45
2022/08/20 07:55:07;;;;;;;4.75;1.25;;;19.70;99.90;;;;;;4940651;28;20044;-46
2022/08/20 07:57:33;;;;;;;9.40;1.70;;;19.70;99.90;;;;;;4942219;28;20027;-45
2022/08/20 07:59:59;;;;;;;7.78;1.33;;;19.80;99.90;;;;;;4943214;28;20047;-49
2022/08/20 08:02:26;;;;;;;6.72;1.15;;;19.90;99.90;;;;;;4940315;28;20030;-45
2022/08/20 08:04:53;;;;;;;8.63;1.30;;;19.90;99.90;;;;;;4940282;28;20118;-47
2022/08/20 08:07:19;;;;;;;7.03;1.38;;;19.80;99.90;;;;;;4941356;28;20027;-46
2022/08/20 08:09:45;;;;;;;6.07;1.10;;;19.90;99.90;;;;;;4939615;28;20043;-45
2022/08/20 08:12:13;;;;;;;5.53;1.20;;;19.90;99.90;;;;;;4942304;28;20088;-49
2022/08/20 08:14:41;;;;;;;6.88;1.35;;;19.90;99.90;;;;;;4941613;28;20475;-47
2022/08/20 08:17:08;;;;;;;6.38;1.40;;;20.00;99.90;;;;;;4940158;28;20479;-48
2022/08/20 08:19:38;;;;;;;7.05;1.42;;;19.90;99.90;;;;;;4940015;28;22583;-45
2022/08/20 08:22:06;;;;;;;5.55;1.23;;;19.90;99.90;;;;;;4941774;28;20035;-47
2022/08/20 08:24:32;;;;;;;6.00;1.20;;;20.00;99.90;;;;;;4942877;28;20062;-51
2022/08/20 08:26:58;;;;;;;6.47;1.30;;;20.10;99.90;;;;;;4960137;28;20047;-48
2022/08/20 08:29:24;;;;;;;8.10;1.17;;;20.10;99.90;;;;;;4940851;28;20035;-47
2022/08/20 08:31:49;;;;;;;6.28;1.10;;;20.10;99.90;;;;;;4960246;28;20039;-46
2022/08/20 08:34:16;;;;;;;6.80;1.20;;;20.20;99.90;;;;;;4957849;28;20043;-50
2022/08/20 08:36:42;;;;;;;6.85;1.38;;;20.10;99.90;;;;;;4957984;28;20049;-47
2022/08/20 08:39:08;;;;;;;6.38;1.30;;;20.30;99.90;;;;;;4960759;28;20046;-48
2022/08/20 08:41:36;;;;;;;4.60;1.27;;;20.30;99.90;;;;;;4959373;28;20035;-47
2022/08/20 08:44:20;;;;;;;7.15;1.40;;;20.30;99.90;;;;;;4960744;28;20062;-47
2022/08/20 08:46:48;;;;;;;8.77;1.40;;;20.20;99.90;;;;;;4943197;28;20050;-49
2022/08/20 08:49:21;;;;;;;7.40;1.42;;;20.40;99.90;;;;;;4943405;28;20959;-46
2022/08/20 08:52:01;;;;;;;9.32;1.40;;;20.50;99.90;;;;;;4959880;28;20034;-45
2022/08/20 08:54:30;;;;;;;7.25;1.10;;;20.60;99.90;;;;;;4942946;28;20039;-49
2022/08/20 08:56:57;;;;;;;6.47;1.48;;;20.60;99.90;;;;;;4961277;28;20043;-44
2022/08/20 08:59:27;;;;;;;5.55;1.23;;;20.70;99.90;;;;;;4960349;28;20057;-45
2022/08/20 09:01:56;;;;;;;5.65;0.98;;;20.70;99.90;;;;;;4960320;28;20081;-45
2022/08/20 09:04:32;;;;;;;4.25;1.00;;;20.90;99.90;;;;;;4960296;28;20049;-47
2022/08/20 09:07:00;;;;;;;6.68;1.17;;;21.00;99.50;;;;;;4960888;28;20062;-46
2022/08/20 09:09:34;;;;;;;4.10;1.08;;;21.10;98.50;;;;;;4961774;28;20039;-45
2022/08/20 09:12:10;;;;;;;3.67;0.90;;;21.20;96.50;;;;;;4959975;28;20480;-45
2022/08/20 09:14:37;;;;;;;5.25;1.13;;;21.40;97.30;;;;;;4960543;28;20121;-44
2022/08/20 09:17:03;;;;;;;8.07;1.20;;;21.40;97.40;;;;;;4959119;28;20610;-47
2022/08/20 09:19:29;;;;;;;4.80;1.02;;;21.70;98.50;;;;;;4959342;28;20038;-45
2022/08/20 09:21:55;;;;;;;5.45;1.10;;;21.80;98.20;;;;;;4960719;28;20511;-46
2022/08/20 09:24:21;;;;;;;8.30;1.30;;;21.90;98.00;;;;;;4960054;28;20063;-45
2022/08/20 09:26:46;;;;;;;6.65;1.30;;;21.90;98.70;;;;;;4959774;28;20038;-45
2022/08/20 09:29:12;;;;;;;7.43;1.25;;;22.10;99.00;;;;;;4960000;28;20066;-49
2022/08/20 09:31:38;;;;;;;6.40;1.10;;;22.30;99.00;;;;;;4961519;28;20474;-50
2022/08/20 09:34:04;;;;;;;6.43;1.50;;;22.10;97.60;;;;;;4943375;28;20039;-47
2022/08/20 09:36:30;;;;;;;6.28;1.10;;;22.20;98.20;;;;;;4941951;28;20566;-48
2022/08/20 09:38:56;;;;;;;8.73;1.60;;;22.50;97.90;;;;;;4959471;28;20039;-47
2022/08/20 09:41:21;;;;;;;8.18;1.20;;;22.40;98.10;;;;;;4959474;28;20033;-48
2022/08/20 09:43:47;;;;;;;5.60;0.95;;;22.60;97.20;;;;;;4959651;28;20039;-48
2022/08/20 09:46:13;;;;;;;5.45;1.05;;;22.70;97.50;;;;;;4958399;28;20074;-46
2022/08/20 09:48:38;;;;;;;5.03;0.93;;;22.70;97.20;;;;;;4960592;28;20121;-48
2022/08/20 09:51:04;;;;;;;6.82;1.10;;;22.90;97.50;;;;;;4959186;28;20381;-49
2022/08/20 09:53:30;;;;;;;4.45;1.10;;;22.80;95.60;;;;;;4942393;28;20046;-46
2022/08/20 09:55:58;;;;;;;4.70;1.13;;;22.80;95.70;;;;;;4958645;28;20038;-44
2022/08/20 09:58:40;;;;;;;7.63;1.25;;;22.50;94.70;;;;;;4959625;28;20414;-44
2022/08/20 10:01:10;;;;;;;6.20;1.08;;;22.80;95.90;;;;;;4957601;28;20039;-46
2022/08/20 10:03:36;;;;;;;4.95;1.20;;;22.80;94.70;;;;;;4958921;28;20098;-44
2022/08/20 10:06:02;;;;;;;7.32;1.00;;;22.80;94.40;;;;;;4959694;28;20034;-45
2022/08/20 10:08:28;;;;;;;5.43;1.20;;;23.00;94.30;;;;;;4958451;28;20403;-47
2022/08/20 10:10:53;;;;;;;5.55;1.10;;;22.90;94.40;;;;;;4960979;28;20035;-47
2022/08/20 10:13:19;;;;;;;3.75;1.02;;;23.10;95.10;;;;;;4960214;28;20398;-47
2022/08/20 10:15:45;;;;;;;5.00;1.30;;;23.10;93.10;;;;;;4961345;28;20057;-49
2022/08/20 10:18:10;;;;;;;5.03;1.10;;;23.00;92.90;;;;;;4959803;28;20089;-47
2022/08/20 10:20:36;;;;;;;5.45;0.90;;;23.20;93.30;;;;;;4959537;28;20035;-46
2022/08/20 10:23:02;;;;;;;5.18;1.00;;;23.20;92.50;;;;;;4960649;28;20058;-48
2022/08/20 10:25:28;;;;;;;5.15;0.80;;;23.20;92.00;;;;;;4958033;28;20051;-47
2022/08/20 10:27:55;;;;;;;3.97;0.82;;;23.20;91.50;;;;;;4959659;28;20113;-46
2022/08/20 10:30:20;;;;;;;4.57;0.90;;;23.40;93.10;;;;;;4957814;28;20034;-46
2022/08/20 10:32:46;;;;;;;4.80;0.90;;;23.30;92.40;;;;;;4958948;28;20121;-48
2022/08/20 10:35:12;;;;;;;4.18;0.85;;;23.50;91.40;;;;;;4958474;28;21264;-46
2022/08/20 10:37:38;;;;;;;4.45;0.80;;;23.40;91.00;;;;;;4959508;28;20459;-46
2022/08/20 10:40:04;;;;;;;5.35;1.20;;;23.50;91.60;;;;;;4958167;28;20035;-48
2022/08/20 10:42:30;;;;;;;3.22;0.80;;;23.60;91.80;;;;;;4961381;28;20499;-50
2022/08/20 10:44:56;;;;;;;4.97;1.00;;;23.70;90.80;;;;;;4960998;28;20027;-48
2022/08/20 10:47:27;;;;;;;6.05;1.05;;;23.70;90.90;;;;;;4961669;28;20383;-45
2022/08/20 10:49:57;;;;;;;6.05;1.20;;;23.60;91.10;;;;;;4960867;28;20035;-46
2022/08/20 10:52:23;;;;;;;6.03;1.17;;;23.60;90.60;;;;;;4943602;28;20118;-49
2022/08/20 10:54:50;;;;;;;3.53;0.95;;;23.70;91.00;;;;;;4960524;28;20042;-47
2022/08/20 10:57:18;;;;;;;4.53;0.70;;;23.80;91.70;;;;;;4959673;28;20046;-47
2022/08/20 10:59:46;;;;;;;6.00;1.10;;;24.00;91.30;;;;;;4961064;28;20366;-46
2022/08/20 11:02:12;;;;;;;5.25;1.00;;;23.90;91.10;;;;;;4964999;28;20062;-47
2022/08/20 11:04:39;;;;;;;5.38;1.08;;;24.10;90.60;;;;;;4962035;28;20034;-48
2022/08/20 11:07:24;;;;;;;5.65;1.10;;;24.30;91.60;;;;;;4943640;28;20047;-45
2022/08/20 11:09:50;;;;;;;5.85;1.23;;;24.50;90.50;;;;;;4959594;28;20383;-45
2022/08/20 11:12:18;;;;;;;7.90;1.10;;;24.80;91.00;;;;;;4961188;28;20592;-46
2022/08/20 11:14:44;;;;;;;6.43;1.13;;;24.90;91.10;;;;;;4961013;28;20501;-49
2022/08/20 11:17:11;;;;;;;6.22;1.40;;;25.30;91.90;;;;;;4960994;28;20491;-49
2022/08/20 11:19:42;;;;;;;5.50;0.93;;;25.30;91.10;;;;;;4961316;28;20066;-45
2022/08/20 11:22:09;;;;;;;6.90;1.20;;;25.10;90.20;;;;;;4962764;28;20499;-49
2022/08/20 11:24:36;;;;;;;6.07;1.00;;;24.40;89.60;;;;;;4961273;28;20075;-49
2022/08/20 11:27:04;;;;;;;5.72;1.00;;;24.60;90.30;;;;;;4961415;28;20034;-49
2022/08/20 11:29:30;;;;;;;4.32;1.13;;;24.70;89.60;;;;;;4959699;28;20040;-51
2022/08/20 11:31:56;;;;;;;7.35;1.48;;;24.90;91.30;;;;;;4963481;28;20039;-47
2022/08/20 11:34:21;;;;;;;5.10;1.23;;;24.80;90.70;;;;;;4961877;28;20078;-49
2022/08/20 11:36:48;;;;;;;5.85;1.45;;;24.30;88.60;;;;;;4960145;28;20507;-50
2022/08/20 11:39:13;;;;;;;5.47;1.00;;;24.70;90.50;;;;;;4957826;28;20027;-48
2022/08/20 11:41:39;;;;;;;5.47;1.20;;;24.60;89.80;;;;;;4962565;28;20034;-49
2022/08/20 11:44:05;;;;;;;6.20;1.50;;;24.30;89.40;;;;;;4963402;28;20514;-45
2022/08/20 11:46:32;;;;;;;7.38;1.20;;;24.10;91.00;;;;;;4961270;28;20049;-45
2022/08/20 11:48:58;;;;;;;6.32;1.10;;;24.00;90.50;;;;;;4961817;28;20039;-47
2022/08/20 11:51:24;;;;;;;4.15;1.00;;;24.30;91.30;;;;;;4961955;28;20515;-46
2022/08/20 11:53:49;;;;;;;4.10;0.95;;;24.60;90.40;;;;;;4960958;28;20074;-47
2022/08/20 11:56:15;;;;;;;4.82;0.90;;;25.00;90.60;;;;;;4961110;28;20537;-45
2022/08/20 11:58:41;;;;;;;4.70;1.17;;;25.30;90.10;;;;;;4959642;28;20133;-48
2022/08/20 12:01:08;;;;;;;4.18;0.80;;;25.50;89.00;;;;;;4960616;28;20109;-47
2022/08/20 12:03:34;;;;;;;5.03;1.00;;;25.70;89.70;;;;;;4961846;28;20511;-49
2022/08/20 12:05:59;;;;;;;5.70;1.10;;;25.90;88.00;;;;;;4961443;28;20506;-48
2022/08/20 12:08:25;;;;;;;5.93;1.08;;;26.00;87.50;;;;;;4962811;28;20045;-48
2022/08/20 12:10:51;;;;;;;5.03;1.00;;;25.40;87.20;;;;;;4959854;28;20070;-47
2022/08/20 12:13:16;;;;;;;3.63;0.70;;;25.60;88.50;;;;;;4962002;28;20042;-50
2022/08/20 12:15:42;;;;;;;4.07;0.93;;;26.00;87.10;;;;;;4960758;28;20125;-48
2022/08/20 12:18:09;;;;;;;6.22;0.98;;;25.80;85.70;;;;;;4962250;28;20057;-50
2022/08/20 12:20:36;;;;;;;4.78;1.00;;;25.00;86.10;;;;;;4963609;28;20489;-48
2022/08/20 12:23:02;;;;;;;6.25;1.05;;;25.00;87.20;;;;;;4962393;28;20031;-49
2022/08/20 12:25:28;;;;;;;5.28;1.10;;;24.50;88.00;;;;;;4960978;28;20057;-49
2022/08/20 12:27:53;;;;;;;5.60;1.10;;;24.30;89.10;;;;;;4962245;28;20039;-50
2022/08/20 12:30:22;;;;;;;5.32;1.17;;;24.40;89.10;;;;;;4944479;28;20090;-50
2022/08/20 12:32:48;;;;;;;4.70;1.20;;;24.50;89.10;;;;;;4959531;28;20043;-47
2022/08/20 12:35:16;;;;;;;9.82;1.38;;;24.60;88.30;;;;;;4960693;28;20074;-48
2022/08/20 12:37:43;;;;;;;5.55;1.02;;;24.30;88.60;;;;;;4921084;28;20111;-46
2022/08/20 12:40:14;;;;;;;6.35;1.23;;;24.30;90.30;;;;;;4960912;28;20081;-45
2022/08/20 12:42:39;;;;;;;7.22;1.10;;;24.40;88.60;;;;;;4942945;28;20047;-47
2022/08/20 12:45:06;;;;;;;4.72;1.00;;;24.20;89.40;;;;;;4958314;28;20513;-45
2022/08/20 12:47:35;;;;;;;5.32;1.20;;;24.20;88.70;;;;;;4959939;28;20042;-46
2022/08/20 12:50:08;;;;;;;6.95;1.25;;;24.40;89.50;;;;;;4955412;28;20038;-47
2022/08/20 12:52:34;;;;;;;5.18;1.08;;;25.00;89.70;;;;;;4952519;28;20057;-46
2022/08/20 12:55:00;;;;;;;7.60;1.20;;;24.90;88.40;;;;;;4951493;28;20022;-45